sensor_id;sensor_type;location;lat;lon;timestamp;P1;durP1;ratioP1;P2;durP2;ratioP2
52320;SDS011;38261;54.090;13.382;2022-09-09T00:00:33;20.50;;;12.37;;
52320;SDS011;38261;54.090;13.382;2022-09-09T00:02:05;22.43;;;11.57;;
52320;SDS011;38261;54.090;13.382;2022-09-09T00:05:26;23.13;;;12.70;;
52320;SDS011;38261;54.090;13.382;2022-09-09T00:07:21;18.53;;;12.57;;
52320;SDS011;38261;54.090;13.382;2022-09-09T00:10:39;26.10;;;13.67;;
52320;SDS011;38261;54.090;13.382;2022-09-09T00:12:22;21.90;;;14.40;;
52320;SDS011;38261;54.090;13.382;2022-09-09T00:13:49;24.63;;;15.27;;
52320;SDS011;38261;54.090;13.382;2022-09-09T00:15:22;23.10;;;14.83;;
52320;SDS011;38261;54.090;13.382;2022-09-09T00:16:50;22.90;;;14.50;;
52320;SDS011;38261;54.090;13.382;2022-09-09T00:19:46;24.43;;;14.77;;
52320;SDS011;38261;54.090;13.382;2022-09-09T00:21:32;23.70;;;14.53;;
52320;SDS011;38261;54.090;13.382;2022-09-09T00:23:12;28.03;;;14.80;;
52320;SDS011;38261;54.090;13.382;2022-09-09T00:24:45;22.47;;;14.07;;
52320;SDS011;38261;54.090;13.382;2022-09-09T00:26:14;21.37;;;14.73;;
52320;SDS011;38261;54.090;13.382;2022-09-09T00:27:49;18.43;;;13.40;;
52320;SDS011;38261;54.090;13.382;2022-09-09T00:30:40;18.60;;;12.23;;
52320;SDS011;38261;54.090;13.382;2022-09-09T00:32:18;18.03;;;12.07;;
52320;SDS011;38261;54.090;13.382;2022-09-09T00:33:41;15.87;;;11.23;;
52320;SDS011;38261;54.090;13.382;2022-09-09T00:35:15;12.57;;;9.97;;
52320;SDS011;38261;54.090;13.382;2022-09-09T00:37:04;15.63;;;11.50;;
52320;SDS011;38261;54.090;13.382;2022-09-09T00:38:28;14.60;;;10.00;;
52320;SDS011;38261;54.090;13.382;2022-09-09T00:40:18;16.23;;;10.53;;
52320;SDS011;38261;54.090;13.382;2022-09-09T00:42:11;15.10;;;10.57;;
52320;SDS011;38261;54.090;13.382;2022-09-09T00:43:40;12.47;;;9.50;;
52320;SDS011;38261;54.090;13.382;2022-09-09T00:47:12;20.67;;;12.47;;
52320;SDS011;38261;54.090;13.382;2022-09-09T00:50:17;19.70;;;11.00;;
52320;SDS011;38261;54.090;13.382;2022-09-09T00:53:36;15.73;;;11.20;;
52320;SDS011;38261;54.090;13.382;2022-09-09T00:55:06;18.70;;;12.10;;
52320;SDS011;38261;54.090;13.382;2022-09-09T00:57:02;17.40;;;11.50;;
52320;SDS011;38261;54.090;13.382;2022-09-09T00:58:48;16.30;;;11.37;;
52320;SDS011;38261;54.090;13.382;2022-09-09T01:00:30;18.80;;;10.87;;
52320;SDS011;38261;54.090;13.382;2022-09-09T01:02:07;15.03;;;10.47;;
52320;SDS011;38261;54.090;13.382;2022-09-09T01:03:46;16.00;;;11.00;;
52320;SDS011;38261;54.090;13.382;2022-09-09T01:07:27;14.50;;;11.03;;
52320;SDS011;38261;54.090;13.382;2022-09-09T01:10:30;14.70;;;11.30;;
52320;SDS011;38261;54.090;13.382;2022-09-09T01:13:37;16.40;;;11.60;;
52320;SDS011;38261;54.090;13.382;2022-09-09T01:15:03;14.70;;;12.30;;
52320;SDS011;38261;54.090;13.382;2022-09-09T01:16:31;19.77;;;12.00;;
52320;SDS011;38261;54.090;13.382;2022-09-09T01:19:45;16.60;;;11.20;;
52320;SDS011;38261;54.090;13.382;2022-09-09T01:27:58;14.20;;;10.57;;
52320;SDS011;38261;54.090;13.382;2022-09-09T01:29:24;13.30;;;10.67;;
52320;SDS011;38261;54.090;13.382;2022-09-09T01:30:46;16.60;;;10.83;;
52320;SDS011;38261;54.090;13.382;2022-09-09T01:34:01;16.40;;;11.13;;
52320;SDS011;38261;54.090;13.382;2022-09-09T01:37:10;15.30;;;10.90;;
52320;SDS011;38261;54.090;13.382;2022-09-09T01:38:33;17.00;;;10.80;;
52320;SDS011;38261;54.090;13.382;2022-09-09T01:39:57;13.67;;;10.47;;
52320;SDS011;38261;54.090;13.382;2022-09-09T01:41:19;19.53;;;12.03;;
52320;SDS011;38261;54.090;13.382;2022-09-09T01:42:42;18.47;;;11.30;;
52320;SDS011;38261;54.090;13.382;2022-09-09T01:44:04;17.70;;;10.47;;
52320;SDS011;38261;54.090;13.382;2022-09-09T01:45:27;14.70;;;9.07;;
52320;SDS011;38261;54.090;13.382;2022-09-09T01:46:50;16.33;;;10.50;;
52320;SDS011;38261;54.090;13.382;2022-09-09T01:48:12;12.53;;;9.77;;
52320;SDS011;38261;54.090;13.382;2022-09-09T01:49:34;13.47;;;9.87;;
52320;SDS011;38261;54.090;13.382;2022-09-09T01:50:56;14.47;;;10.77;;
52320;SDS011;38261;54.090;13.382;2022-09-09T01:52:18;13.63;;;9.20;;
52320;SDS011;38261;54.090;13.382;2022-09-09T01:53:40;14.70;;;10.67;;
52320;SDS011;38261;54.090;13.382;2022-09-09T01:55:05;12.37;;;9.40;;
52320;SDS011;38261;54.090;13.382;2022-09-09T02:06:05;10.63;;;7.90;;
52320;SDS011;38261;54.090;13.382;2022-09-09T02:09:00;10.17;;;7.63;;
52320;SDS011;38261;54.090;13.382;2022-09-09T02:12:01;11.17;;;7.73;;
52320;SDS011;38261;54.090;13.382;2022-09-09T02:13:29;10.40;;;7.30;;
52320;SDS011;38261;54.090;13.382;2022-09-09T02:15:00;8.40;;;7.07;;
52320;SDS011;38261;54.090;13.382;2022-09-09T02:16:37;10.57;;;6.87;;
52320;SDS011;38261;54.090;13.382;2022-09-09T02:18:13;10.30;;;6.90;;
52320;SDS011;38261;54.090;13.382;2022-09-09T02:19:39;9.63;;;7.30;;
52320;SDS011;38261;54.090;13.382;2022-09-09T02:21:09;10.70;;;6.57;;
52320;SDS011;38261;54.090;13.382;2022-09-09T02:22:33;9.10;;;6.70;;
52320;SDS011;38261;54.090;13.382;2022-09-09T02:23:58;9.70;;;6.43;;
52320;SDS011;38261;54.090;13.382;2022-09-09T02:25:26;9.43;;;7.10;;
52320;SDS011;38261;54.090;13.382;2022-09-09T02:26:51;8.00;;;6.60;;
52320;SDS011;38261;54.090;13.382;2022-09-09T02:28:17;9.73;;;6.90;;
52320;SDS011;38261;54.090;13.382;2022-09-09T02:29:42;7.60;;;6.40;;
52320;SDS011;38261;54.090;13.382;2022-09-09T02:31:06;8.60;;;6.60;;
52320;SDS011;38261;54.090;13.382;2022-09-09T02:32:28;10.20;;;7.53;;
52320;SDS011;38261;54.090;13.382;2022-09-09T02:33:55;9.67;;;6.97;;
52320;SDS011;38261;54.090;13.382;2022-09-09T02:35:21;9.03;;;7.00;;
52320;SDS011;38261;54.090;13.382;2022-09-09T02:36:45;10.00;;;7.47;;
52320;SDS011;38261;54.090;13.382;2022-09-09T02:38:10;10.87;;;7.27;;
52320;SDS011;38261;54.090;13.382;2022-09-09T02:39:35;13.07;;;8.13;;
52320;SDS011;38261;54.090;13.382;2022-09-09T02:40:57;11.70;;;7.80;;
52320;SDS011;38261;54.090;13.382;2022-09-09T02:42:20;9.63;;;7.50;;
52320;SDS011;38261;54.090;13.382;2022-09-09T02:43:42;10.53;;;8.13;;
52320;SDS011;38261;54.090;13.382;2022-09-09T02:45:04;10.87;;;8.20;;
52320;SDS011;38261;54.090;13.382;2022-09-09T02:50:06;10.53;;;7.80;;
52320;SDS011;38261;54.090;13.382;2022-09-09T02:53:09;15.00;;;9.43;;
52320;SDS011;38261;54.090;13.382;2022-09-09T02:54:39;12.63;;;8.80;;
52320;SDS011;38261;54.090;13.382;2022-09-09T02:56:05;12.27;;;8.40;;
52320;SDS011;38261;54.090;13.382;2022-09-09T02:57:34;13.53;;;8.77;;
52320;SDS011;38261;54.090;13.382;2022-09-09T02:58:58;13.70;;;8.57;;
52320;SDS011;38261;54.090;13.382;2022-09-09T03:00:26;11.47;;;8.53;;
52320;SDS011;38261;54.090;13.382;2022-09-09T03:01:49;13.10;;;9.27;;
52320;SDS011;38261;54.090;13.382;2022-09-09T03:03:11;12.43;;;8.70;;
52320;SDS011;38261;54.090;13.382;2022-09-09T03:04:34;13.53;;;8.93;;
52320;SDS011;38261;54.090;13.382;2022-09-09T03:05:56;11.23;;;7.87;;
52320;SDS011;38261;54.090;13.382;2022-09-09T03:07:18;11.07;;;7.80;;
52320;SDS011;38261;54.090;13.382;2022-09-09T03:08:41;12.80;;;9.27;;
52320;SDS011;38261;54.090;13.382;2022-09-09T03:10:10;14.10;;;9.20;;
52320;SDS011;38261;54.090;13.382;2022-09-09T03:11:32;12.77;;;8.00;;
52320;SDS011;38261;54.090;13.382;2022-09-09T03:12:54;12.13;;;9.00;;
52320;SDS011;38261;54.090;13.382;2022-09-09T03:14:16;14.33;;;9.70;;
52320;SDS011;38261;54.090;13.382;2022-09-09T03:15:42;11.70;;;8.80;;
52320;SDS011;38261;54.090;13.382;2022-09-09T03:17:05;13.40;;;9.23;;
52320;SDS011;38261;54.090;13.382;2022-09-09T03:18:27;12.27;;;8.27;;
52320;SDS011;38261;54.090;13.382;2022-09-09T03:19:49;12.57;;;8.67;;
52320;SDS011;38261;54.090;13.382;2022-09-09T03:21:14;14.87;;;9.53;;
52320;SDS011;38261;54.090;13.382;2022-09-09T03:22:36;15.23;;;10.20;;
52320;SDS011;38261;54.090;13.382;2022-09-09T03:23:58;14.60;;;8.80;;
52320;SDS011;38261;54.090;13.382;2022-09-09T03:25:20;13.33;;;9.10;;
52320;SDS011;38261;54.090;13.382;2022-09-09T03:26:45;12.77;;;8.73;;
52320;SDS011;38261;54.090;13.382;2022-09-09T03:28:07;13.77;;;8.93;;
52320;SDS011;38261;54.090;13.382;2022-09-09T03:29:29;14.43;;;9.43;;
52320;SDS011;38261;54.090;13.382;2022-09-09T03:30:51;15.97;;;9.60;;
52320;SDS011;38261;54.090;13.382;2022-09-09T03:32:13;13.00;;;9.50;;
52320;SDS011;38261;54.090;13.382;2022-09-09T03:33:39;12.50;;;9.07;;
52320;SDS011;38261;54.090;13.382;2022-09-09T03:35:02;15.97;;;9.37;;
52320;SDS011;38261;54.090;13.382;2022-09-09T03:36:25;13.80;;;9.10;;
52320;SDS011;38261;54.090;13.382;2022-09-09T03:37:48;13.03;;;9.00;;
52320;SDS011;38261;54.090;13.382;2022-09-09T03:39:10;14.40;;;9.70;;
52320;SDS011;38261;54.090;13.382;2022-09-09T03:40:32;15.13;;;10.00;;
52320;SDS011;38261;54.090;13.382;2022-09-09T03:41:54;15.00;;;10.97;;
52320;SDS011;38261;54.090;13.382;2022-09-09T03:43:16;13.33;;;9.33;;
52320;SDS011;38261;54.090;13.382;2022-09-09T03:44:38;14.50;;;10.40;;
52320;SDS011;38261;54.090;13.382;2022-09-09T03:46:01;13.77;;;10.43;;
52320;SDS011;38261;54.090;13.382;2022-09-09T03:47:23;12.27;;;10.07;;
52320;SDS011;38261;54.090;13.382;2022-09-09T03:48:45;12.40;;;10.20;;
52320;SDS011;38261;54.090;13.382;2022-09-09T03:50:07;14.53;;;11.10;;
52320;SDS011;38261;54.090;13.382;2022-09-09T03:51:31;15.33;;;11.63;;
52320;SDS011;38261;54.090;13.382;2022-09-09T03:52:57;13.20;;;10.73;;
52320;SDS011;38261;54.090;13.382;2022-09-09T03:54:19;13.10;;;10.80;;
52320;SDS011;38261;54.090;13.382;2022-09-09T03:55:59;18.07;;;12.20;;
52320;SDS011;38261;54.090;13.382;2022-09-09T03:57:22;14.67;;;12.27;;
52320;SDS011;38261;54.090;13.382;2022-09-09T03:58:44;16.37;;;12.00;;
52320;SDS011;38261;54.090;13.382;2022-09-09T04:00:06;16.60;;;12.10;;
52320;SDS011;38261;54.090;13.382;2022-09-09T04:01:29;15.87;;;12.70;;
52320;SDS011;38261;54.090;13.382;2022-09-09T04:02:51;13.63;;;11.37;;
52320;SDS011;38261;54.090;13.382;2022-09-09T04:04:15;16.90;;;12.70;;
52320;SDS011;38261;54.090;13.382;2022-09-09T04:05:39;18.03;;;12.63;;
52320;SDS011;38261;54.090;13.382;2022-09-09T04:07:03;20.93;;;13.50;;
52320;SDS011;38261;54.090;13.382;2022-09-09T04:08:28;18.30;;;13.93;;
52320;SDS011;38261;54.090;13.382;2022-09-09T04:09:53;15.70;;;13.97;;
52320;SDS011;38261;54.090;13.382;2022-09-09T04:11:16;16.73;;;14.23;;
52320;SDS011;38261;54.090;13.382;2022-09-09T04:12:38;17.43;;;13.63;;
52320;SDS011;38261;54.090;13.382;2022-09-09T04:14:08;16.63;;;14.60;;
52320;SDS011;38261;54.090;13.382;2022-09-09T04:15:30;18.07;;;14.83;;
52320;SDS011;38261;54.090;13.382;2022-09-09T04:16:52;16.70;;;14.47;;
52320;SDS011;38261;54.090;13.382;2022-09-09T04:18:14;18.03;;;15.17;;
52320;SDS011;38261;54.090;13.382;2022-09-09T04:19:40;18.00;;;14.50;;
52320;SDS011;38261;54.090;13.382;2022-09-09T04:21:03;17.70;;;15.53;;
52320;SDS011;38261;54.090;13.382;2022-09-09T04:22:27;17.30;;;13.93;;
52320;SDS011;38261;54.090;13.382;2022-09-09T04:23:49;17.30;;;14.87;;
52320;SDS011;38261;54.090;13.382;2022-09-09T04:25:12;19.60;;;15.10;;
52320;SDS011;38261;54.090;13.382;2022-09-09T04:26:35;19.73;;;16.27;;
52320;SDS011;38261;54.090;13.382;2022-09-09T04:27:58;19.17;;;15.37;;
52320;SDS011;38261;54.090;13.382;2022-09-09T04:29:20;20.17;;;16.67;;
52320;SDS011;38261;54.090;13.382;2022-09-09T04:30:42;18.50;;;15.73;;
52320;SDS011;38261;54.090;13.382;2022-09-09T04:32:05;18.80;;;15.77;;
52320;SDS011;38261;54.090;13.382;2022-09-09T04:33:27;22.10;;;17.07;;
52320;SDS011;38261;54.090;13.382;2022-09-09T04:34:49;19.00;;;15.70;;
52320;SDS011;38261;54.090;13.382;2022-09-09T04:36:11;18.70;;;15.10;;
52320;SDS011;38261;54.090;13.382;2022-09-09T04:37:34;19.07;;;17.03;;
52320;SDS011;38261;54.090;13.382;2022-09-09T04:38:56;23.20;;;19.87;;
52320;SDS011;38261;54.090;13.382;2022-09-09T04:40:18;22.10;;;18.73;;
52320;SDS011;38261;54.090;13.382;2022-09-09T04:41:39;22.90;;;19.97;;
52320;SDS011;38261;54.090;13.382;2022-09-09T04:43:02;19.90;;;17.80;;
52320;SDS011;38261;54.090;13.382;2022-09-09T04:44:26;24.20;;;20.40;;
52320;SDS011;38261;54.090;13.382;2022-09-09T04:45:49;25.83;;;22.17;;
52320;SDS011;38261;54.090;13.382;2022-09-09T04:47:12;24.47;;;20.53;;
52320;SDS011;38261;54.090;13.382;2022-09-09T04:48:35;25.07;;;21.10;;
52320;SDS011;38261;54.090;13.382;2022-09-09T04:49:58;28.87;;;22.70;;
52320;SDS011;38261;54.090;13.382;2022-09-09T04:51:20;26.13;;;21.77;;
52320;SDS011;38261;54.090;13.382;2022-09-09T04:52:42;24.73;;;22.07;;
52320;SDS011;38261;54.090;13.382;2022-09-09T04:54:04;23.37;;;20.50;;
52320;SDS011;38261;54.090;13.382;2022-09-09T04:55:27;25.87;;;20.50;;
52320;SDS011;38261;54.090;13.382;2022-09-09T04:56:50;23.47;;;20.53;;
52320;SDS011;38261;54.090;13.382;2022-09-09T04:58:12;26.13;;;21.40;;
52320;SDS011;38261;54.090;13.382;2022-09-09T04:59:34;27.30;;;21.77;;
52320;SDS011;38261;54.090;13.382;2022-09-09T05:01:06;24.73;;;20.63;;
52320;SDS011;38261;54.090;13.382;2022-09-09T05:02:29;24.00;;;19.70;;
52320;SDS011;38261;54.090;13.382;2022-09-09T05:03:52;24.17;;;19.07;;
52320;SDS011;38261;54.090;13.382;2022-09-09T05:05:14;21.50;;;18.20;;
52320;SDS011;38261;54.090;13.382;2022-09-09T05:06:37;23.30;;;20.07;;
52320;SDS011;38261;54.090;13.382;2022-09-09T05:08:02;21.37;;;18.60;;
52320;SDS011;38261;54.090;13.382;2022-09-09T05:09:26;24.93;;;20.37;;
52320;SDS011;38261;54.090;13.382;2022-09-09T05:10:47;24.13;;;19.23;;
52320;SDS011;38261;54.090;13.382;2022-09-09T05:12:10;25.10;;;19.77;;
52320;SDS011;38261;54.090;13.382;2022-09-09T05:13:32;21.63;;;18.67;;
52320;SDS011;38261;54.090;13.382;2022-09-09T05:15:00;26.67;;;18.87;;
52320;SDS011;38261;54.090;13.382;2022-09-09T05:16:22;21.90;;;17.77;;
52320;SDS011;38261;54.090;13.382;2022-09-09T05:17:44;27.30;;;18.67;;
52320;SDS011;38261;54.090;13.382;2022-09-09T05:19:06;25.07;;;18.97;;
52320;SDS011;38261;54.090;13.382;2022-09-09T05:20:30;22.70;;;17.63;;
52320;SDS011;38261;54.090;13.382;2022-09-09T05:21:53;21.27;;;17.63;;
52320;SDS011;38261;54.090;13.382;2022-09-09T05:23:15;19.97;;;17.10;;
52320;SDS011;38261;54.090;13.382;2022-09-09T05:24:38;25.30;;;18.90;;
52320;SDS011;38261;54.090;13.382;2022-09-09T05:26:00;22.20;;;17.70;;
52320;SDS011;38261;54.090;13.382;2022-09-09T05:27:22;24.93;;;16.80;;
52320;SDS011;38261;54.090;13.382;2022-09-09T05:28:44;18.30;;;16.20;;
52320;SDS011;38261;54.090;13.382;2022-09-09T05:30:07;18.23;;;15.83;;
52320;SDS011;38261;54.090;13.382;2022-09-09T05:31:30;20.90;;;15.00;;
52320;SDS011;38261;54.090;13.382;2022-09-09T05:32:55;20.00;;;16.10;;
52320;SDS011;38261;54.090;13.382;2022-09-09T05:34:18;23.60;;;17.07;;
52320;SDS011;38261;54.090;13.382;2022-09-09T05:35:40;18.57;;;14.80;;
52320;SDS011;38261;54.090;13.382;2022-09-09T05:37:03;19.17;;;15.03;;
52320;SDS011;38261;54.090;13.382;2022-09-09T05:38:25;16.50;;;13.70;;
52320;SDS011;38261;54.090;13.382;2022-09-09T05:39:49;19.60;;;13.67;;
52320;SDS011;38261;54.090;13.382;2022-09-09T05:41:12;17.20;;;13.53;;
52320;SDS011;38261;54.090;13.382;2022-09-09T05:42:37;20.30;;;14.43;;
52320;SDS011;38261;54.090;13.382;2022-09-09T05:44:00;15.87;;;13.87;;
52320;SDS011;38261;54.090;13.382;2022-09-09T05:45:23;18.90;;;14.13;;
52320;SDS011;38261;54.090;13.382;2022-09-09T05:46:45;19.00;;;14.10;;
52320;SDS011;38261;54.090;13.382;2022-09-09T05:48:07;20.30;;;14.97;;
52320;SDS011;38261;54.090;13.382;2022-09-09T05:49:29;23.70;;;14.27;;
52320;SDS011;38261;54.090;13.382;2022-09-09T05:50:54;18.00;;;13.80;;
52320;SDS011;38261;54.090;13.382;2022-09-09T05:52:16;18.37;;;13.50;;
52320;SDS011;38261;54.090;13.382;2022-09-09T05:53:38;16.00;;;12.47;;
52320;SDS011;38261;54.090;13.382;2022-09-09T05:55:00;16.97;;;13.10;;
52320;SDS011;38261;54.090;13.382;2022-09-09T05:56:23;17.30;;;13.07;;
52320;SDS011;38261;54.090;13.382;2022-09-09T05:57:49;15.67;;;12.33;;
52320;SDS011;38261;54.090;13.382;2022-09-09T05:59:13;17.90;;;13.07;;
52320;SDS011;38261;54.090;13.382;2022-09-09T06:00:36;18.07;;;13.10;;
52320;SDS011;38261;54.090;13.382;2022-09-09T06:01:59;18.07;;;13.87;;
52320;SDS011;38261;54.090;13.382;2022-09-09T06:03:21;17.37;;;14.03;;
52320;SDS011;38261;54.090;13.382;2022-09-09T06:04:45;22.63;;;16.20;;
52320;SDS011;38261;54.090;13.382;2022-09-09T06:06:08;19.30;;;14.53;;
52320;SDS011;38261;54.090;13.382;2022-09-09T06:07:31;15.43;;;12.73;;
52320;SDS011;38261;54.090;13.382;2022-09-09T06:08:54;17.20;;;12.73;;
52320;SDS011;38261;54.090;13.382;2022-09-09T06:10:20;17.47;;;12.70;;
52320;SDS011;38261;54.090;13.382;2022-09-09T06:11:42;20.10;;;12.47;;
52320;SDS011;38261;54.090;13.382;2022-09-09T06:13:05;16.63;;;12.27;;
52320;SDS011;38261;54.090;13.382;2022-09-09T06:14:27;14.20;;;12.03;;
52320;SDS011;38261;54.090;13.382;2022-09-09T06:15:52;18.87;;;12.43;;
52320;SDS011;38261;54.090;13.382;2022-09-09T06:17:15;17.37;;;13.47;;
52320;SDS011;38261;54.090;13.382;2022-09-09T06:18:40;19.13;;;13.43;;
52320;SDS011;38261;54.090;13.382;2022-09-09T06:20:02;16.87;;;12.63;;
52320;SDS011;38261;54.090;13.382;2022-09-09T06:21:28;20.97;;;13.20;;
52320;SDS011;38261;54.090;13.382;2022-09-09T06:22:52;16.83;;;11.80;;
52320;SDS011;38261;54.090;13.382;2022-09-09T06:24:14;21.80;;;13.17;;
52320;SDS011;38261;54.090;13.382;2022-09-09T06:25:38;22.07;;;13.70;;
52320;SDS011;38261;54.090;13.382;2022-09-09T06:27:02;24.30;;;13.67;;
52320;SDS011;38261;54.090;13.382;2022-09-09T06:28:24;19.47;;;13.50;;
52320;SDS011;38261;54.090;13.382;2022-09-09T06:29:46;20.23;;;14.13;;
52320;SDS011;38261;54.090;13.382;2022-09-09T06:31:10;21.70;;;12.97;;
52320;SDS011;38261;54.090;13.382;2022-09-09T06:32:34;22.10;;;14.03;;
52320;SDS011;38261;54.090;13.382;2022-09-09T06:33:57;20.70;;;14.20;;
52320;SDS011;38261;54.090;13.382;2022-09-09T06:35:20;25.83;;;15.03;;
52320;SDS011;38261;54.090;13.382;2022-09-09T06:36:42;18.73;;;13.90;;
52320;SDS011;38261;54.090;13.382;2022-09-09T06:38:04;18.80;;;13.73;;
52320;SDS011;38261;54.090;13.382;2022-09-09T06:39:27;23.67;;;14.93;;
52320;SDS011;38261;54.090;13.382;2022-09-09T06:40:52;21.70;;;14.47;;
52320;SDS011;38261;54.090;13.382;2022-09-09T06:42:16;21.27;;;15.03;;
52320;SDS011;38261;54.090;13.382;2022-09-09T06:43:38;19.23;;;13.77;;
52320;SDS011;38261;54.090;13.382;2022-09-09T06:45:00;23.53;;;14.80;;
52320;SDS011;38261;54.090;13.382;2022-09-09T06:46:26;25.10;;;14.63;;
52320;SDS011;38261;54.090;13.382;2022-09-09T06:47:51;21.17;;;14.20;;
52320;SDS011;38261;54.090;13.382;2022-09-09T06:49:16;19.77;;;14.37;;
52320;SDS011;38261;54.090;13.382;2022-09-09T06:50:38;26.63;;;12.90;;
52320;SDS011;38261;54.090;13.382;2022-09-09T06:52:00;18.63;;;13.00;;
52320;SDS011;38261;54.090;13.382;2022-09-09T06:53:22;20.53;;;13.37;;
52320;SDS011;38261;54.090;13.382;2022-09-09T06:54:45;18.17;;;12.70;;
52320;SDS011;38261;54.090;13.382;2022-09-09T06:57:38;21.90;;;13.80;;
52320;SDS011;38261;54.090;13.382;2022-09-09T06:59:01;20.47;;;12.97;;
52320;SDS011;38261;54.090;13.382;2022-09-09T07:00:25;22.43;;;12.90;;
52320;SDS011;38261;54.090;13.382;2022-09-09T07:01:47;20.13;;;12.90;;
52320;SDS011;38261;54.090;13.382;2022-09-09T07:03:15;21.37;;;13.80;;
52320;SDS011;38261;54.090;13.382;2022-09-09T07:04:38;20.17;;;12.40;;
52320;SDS011;38261;54.090;13.382;2022-09-09T07:06:00;20.27;;;12.83;;
52320;SDS011;38261;54.090;13.382;2022-09-09T07:07:22;22.97;;;13.87;;
52320;SDS011;38261;54.090;13.382;2022-09-09T07:08:52;24.13;;;14.67;;
52320;SDS011;38261;54.090;13.382;2022-09-09T07:10:17;25.93;;;14.03;;
52320;SDS011;38261;54.090;13.382;2022-09-09T07:11:40;23.97;;;13.53;;
52320;SDS011;38261;54.090;13.382;2022-09-09T07:13:07;24.80;;;14.20;;
52320;SDS011;38261;54.090;13.382;2022-09-09T07:14:30;30.73;;;14.10;;
52320;SDS011;38261;54.090;13.382;2022-09-09T07:15:52;33.67;;;13.77;;
52320;SDS011;38261;54.090;13.382;2022-09-09T07:17:15;21.93;;;14.13;;
52320;SDS011;38261;54.090;13.382;2022-09-09T07:18:37;26.87;;;15.10;;
52320;SDS011;38261;54.090;13.382;2022-09-09T07:19:59;23.17;;;14.77;;
52320;SDS011;38261;54.090;13.382;2022-09-09T07:21:21;30.63;;;15.60;;
52320;SDS011;38261;54.090;13.382;2022-09-09T07:22:43;21.20;;;14.20;;
52320;SDS011;38261;54.090;13.382;2022-09-09T07:24:05;21.60;;;13.23;;
52320;SDS011;38261;54.090;13.382;2022-09-09T07:25:31;20.90;;;13.03;;
52320;SDS011;38261;54.090;13.382;2022-09-09T07:26:53;20.20;;;13.63;;
52320;SDS011;38261;54.090;13.382;2022-09-09T07:28:15;21.30;;;13.60;;
52320;SDS011;38261;54.090;13.382;2022-09-09T07:29:38;25.43;;;12.90;;
52320;SDS011;38261;54.090;13.382;2022-09-09T07:31:00;27.30;;;13.80;;
52320;SDS011;38261;54.090;13.382;2022-09-09T07:32:24;22.20;;;12.77;;
52320;SDS011;38261;54.090;13.382;2022-09-09T07:33:47;23.90;;;14.27;;
52320;SDS011;38261;54.090;13.382;2022-09-09T07:35:09;18.27;;;12.20;;
52320;SDS011;38261;54.090;13.382;2022-09-09T07:36:33;24.00;;;12.30;;
52320;SDS011;38261;54.090;13.382;2022-09-09T07:37:56;20.83;;;12.47;;
52320;SDS011;38261;54.090;13.382;2022-09-09T07:39:18;20.87;;;12.37;;
52320;SDS011;38261;54.090;13.382;2022-09-09T07:40:40;21.27;;;12.10;;
52320;SDS011;38261;54.090;13.382;2022-09-09T07:42:03;22.60;;;12.80;;
52320;SDS011;38261;54.090;13.382;2022-09-09T07:43:26;19.63;;;12.50;;
52320;SDS011;38261;54.090;13.382;2022-09-09T07:44:48;21.80;;;12.20;;
52320;SDS011;38261;54.090;13.382;2022-09-09T07:46:10;21.53;;;12.40;;
52320;SDS011;38261;54.090;13.382;2022-09-09T07:47:34;19.87;;;12.43;;
52320;SDS011;38261;54.090;13.382;2022-09-09T07:48:57;19.17;;;11.73;;
52320;SDS011;38261;54.090;13.382;2022-09-09T07:50:19;19.10;;;12.10;;
52320;SDS011;38261;54.090;13.382;2022-09-09T07:51:42;17.90;;;12.33;;
52320;SDS011;38261;54.090;13.382;2022-09-09T07:53:06;19.03;;;12.00;;
52320;SDS011;38261;54.090;13.382;2022-09-09T07:54:28;20.27;;;11.70;;
52320;SDS011;38261;54.090;13.382;2022-09-09T07:55:50;18.40;;;12.10;;
52320;SDS011;38261;54.090;13.382;2022-09-09T07:57:12;21.30;;;12.03;;
52320;SDS011;38261;54.090;13.382;2022-09-09T07:58:38;17.50;;;10.80;;
52320;SDS011;38261;54.090;13.382;2022-09-09T08:00:02;22.47;;;12.27;;
52320;SDS011;38261;54.090;13.382;2022-09-09T08:01:28;20.70;;;11.50;;
52320;SDS011;38261;54.090;13.382;2022-09-09T08:02:55;24.60;;;13.40;;
52320;SDS011;38261;54.090;13.382;2022-09-09T08:04:18;24.00;;;12.80;;
52320;SDS011;38261;54.090;13.382;2022-09-09T08:05:40;22.30;;;13.50;;
52320;SDS011;38261;54.090;13.382;2022-09-09T08:07:04;21.77;;;13.50;;
52320;SDS011;38261;54.090;13.382;2022-09-09T08:08:27;19.07;;;13.13;;
52320;SDS011;38261;54.090;13.382;2022-09-09T08:09:49;18.97;;;12.47;;
52320;SDS011;38261;54.090;13.382;2022-09-09T08:11:12;20.50;;;12.37;;
52320;SDS011;38261;54.090;13.382;2022-09-09T08:12:36;22.27;;;13.27;;
52320;SDS011;38261;54.090;13.382;2022-09-09T08:13:58;21.03;;;12.80;;
52320;SDS011;38261;54.090;13.382;2022-09-09T08:15:23;22.17;;;12.40;;
52320;SDS011;38261;54.090;13.382;2022-09-09T08:16:46;19.73;;;11.60;;
52320;SDS011;38261;54.090;13.382;2022-09-09T08:18:09;21.17;;;12.20;;
52320;SDS011;38261;54.090;13.382;2022-09-09T08:19:31;19.13;;;11.73;;
52320;SDS011;38261;54.090;13.382;2022-09-09T08:20:57;22.20;;;12.57;;
52320;SDS011;38261;54.090;13.382;2022-09-09T08:22:19;21.00;;;12.00;;
52320;SDS011;38261;54.090;13.382;2022-09-09T08:23:42;20.37;;;11.80;;
52320;SDS011;38261;54.090;13.382;2022-09-09T08:25:05;19.53;;;11.53;;
52320;SDS011;38261;54.090;13.382;2022-09-09T08:26:32;20.33;;;12.27;;
52320;SDS011;38261;54.090;13.382;2022-09-09T08:27:55;20.40;;;12.00;;
52320;SDS011;38261;54.090;13.382;2022-09-09T08:29:17;20.67;;;12.37;;
52320;SDS011;38261;54.090;13.382;2022-09-09T08:30:40;22.47;;;12.43;;
52320;SDS011;38261;54.090;13.382;2022-09-09T08:32:02;20.17;;;13.20;;
52320;SDS011;38261;54.090;13.382;2022-09-09T08:33:24;18.93;;;11.63;;
52320;SDS011;38261;54.090;13.382;2022-09-09T08:34:47;18.13;;;11.70;;
52320;SDS011;38261;54.090;13.382;2022-09-09T08:36:10;20.70;;;12.00;;
52320;SDS011;38261;54.090;13.382;2022-09-09T08:37:33;20.27;;;12.40;;
52320;SDS011;38261;54.090;13.382;2022-09-09T08:38:56;18.17;;;12.70;;
52320;SDS011;38261;54.090;13.382;2022-09-09T08:40:21;17.43;;;12.33;;
52320;SDS011;38261;54.090;13.382;2022-09-09T08:43:37;27.83;;;18.03;;
52320;SDS011;38261;54.090;13.382;2022-09-09T08:46:27;20.93;;;12.53;;
52320;SDS011;38261;54.090;13.382;2022-09-09T08:48:16;20.57;;;12.63;;
52320;SDS011;38261;54.090;13.382;2022-09-09T08:51:46;20.93;;;13.60;;
52320;SDS011;38261;54.090;13.382;2022-09-09T08:54:44;17.60;;;12.27;;
52320;SDS011;38261;54.090;13.382;2022-09-09T08:56:14;15.77;;;11.80;;
52320;SDS011;38261;54.090;13.382;2022-09-09T08:57:43;16.10;;;11.23;;
52320;SDS011;38261;54.090;13.382;2022-09-09T08:59:07;15.57;;;10.73;;
52320;SDS011;38261;54.090;13.382;2022-09-09T09:05:54;16.10;;;10.87;;
52320;SDS011;38261;54.090;13.382;2022-09-09T09:12:16;16.27;;;10.87;;
52320;SDS011;38261;54.090;13.382;2022-09-09T09:15:25;18.87;;;11.70;;
52320;SDS011;38261;54.090;13.382;2022-09-09T09:16:54;21.03;;;12.27;;
52320;SDS011;38261;54.090;13.382;2022-09-09T09:18:22;17.10;;;11.73;;